createdAt,value
2023-05-30T00:00:00.161Z,16.10
2023-05-30T00:02:34.729Z,16.10
2023-05-30T00:05:11.565Z,16.00
2023-05-30T00:07:42.203Z,16.00
2023-05-30T00:10:14.597Z,16.00
2023-05-30T00:12:44.401Z,15.90
2023-05-30T00:15:17.456Z,15.90
2023-05-30T00:18:02.231Z,15.90
2023-05-30T00:20:31.900Z,15.80
2023-05-30T00:23:13.311Z,15.80
2023-05-30T00:25:51.382Z,15.80
2023-05-30T00:28:22.309Z,15.70
2023-05-30T00:30:51.778Z,15.70
2023-05-30T00:33:24.803Z,15.60
2023-05-30T00:35:53.714Z,15.60
2023-05-30T00:38:23.605Z,15.50
2023-05-30T00:40:57.010Z,15.50
2023-05-30T00:43:26.480Z,15.50
2023-05-30T00:46:01.976Z,15.50
2023-05-30T00:48:30.474Z,15.40
2023-05-30T00:51:00.667Z,15.40
2023-05-30T00:53:42.046Z,15.40
2023-05-30T00:56:11.192Z,15.40
2023-05-30T00:58:45.434Z,15.40
2023-05-30T01:01:15.158Z,15.30
2023-05-30T01:03:49.466Z,15.30
2023-05-30T01:06:21.764Z,15.30
2023-05-30T01:08:49.876Z,15.30
2023-05-30T01:11:48.948Z,15.30
2023-05-30T01:14:37.344Z,15.20
2023-05-30T01:17:34.985Z,15.20
2023-05-30T01:20:11.118Z,15.10
2023-05-30T01:23:03.165Z,15.10
2023-05-30T01:26:11.705Z,15.10
2023-05-30T01:28:48.424Z,15.00
2023-05-30T01:31:18.170Z,15.00
2023-05-30T01:33:49.513Z,14.90
2023-05-30T01:36:18.033Z,14.90
2023-05-30T01:38:45.646Z,14.90
2023-05-30T01:41:26.650Z,14.80
2023-05-30T01:44:04.593Z,14.80
2023-05-30T01:46:42.657Z,14.80
2023-05-30T01:49:48.164Z,14.70
2023-05-30T01:52:19.099Z,14.70
2023-05-30T01:54:52.758Z,14.60
2023-05-30T01:57:21.698Z,14.60
2023-05-30T01:59:49.847Z,14.60
2023-05-30T02:02:17.409Z,14.50
2023-05-30T02:04:44.785Z,14.50
2023-05-30T02:07:12.985Z,14.40
2023-05-30T02:09:42.453Z,14.40
2023-05-30T02:12:10.842Z,14.30
2023-05-30T02:14:38.695Z,14.30
2023-05-30T02:17:06.829Z,14.30
2023-05-30T02:19:34.370Z,14.30
2023-05-30T02:22:01.690Z,14.20
2023-05-30T02:24:29.108Z,14.20
2023-05-30T02:26:56.633Z,14.20
2023-05-30T02:29:23.946Z,14.20
2023-05-30T02:31:51.931Z,14.10
2023-05-30T02:34:19.396Z,14.10
2023-05-30T02:36:46.731Z,14.10
2023-05-30T02:39:14.106Z,14.10
2023-05-30T02:41:43.793Z,14.00
2023-05-30T02:44:11.211Z,14.00
2023-05-30T02:46:39.622Z,14.00
2023-05-30T02:49:08.131Z,14.00
2023-05-30T02:51:36.367Z,14.00
2023-05-30T02:54:05.862Z,13.90
2023-05-30T02:56:50.863Z,13.90
2023-05-30T02:59:32.228Z,13.90
2023-05-30T03:02:07.314Z,13.80
2023-05-30T03:04:34.752Z,13.70
2023-05-30T03:07:02.585Z,13.80
2023-05-30T03:09:32.592Z,13.70
2023-05-30T03:12:00.278Z,13.70
2023-05-30T03:14:27.595Z,13.70
2023-05-30T03:16:57.697Z,13.70
2023-05-30T03:19:25.156Z,13.60
2023-05-30T03:21:55.315Z,13.60
2023-05-30T03:24:24.177Z,13.70
2023-05-30T03:26:51.514Z,13.60
2023-05-30T03:29:19.618Z,13.70
2023-05-30T03:31:48.199Z,13.70
2023-05-30T03:34:15.668Z,13.70
2023-05-30T03:36:45.238Z,13.70
2023-05-30T03:39:13.794Z,13.70
2023-05-30T03:41:41.775Z,13.80
2023-05-30T03:44:09.156Z,13.80
2023-05-30T03:46:36.489Z,13.90
2023-05-30T03:49:03.873Z,13.90
2023-05-30T03:51:31.259Z,13.90
2023-05-30T03:53:58.518Z,13.90
2023-05-30T03:56:27.148Z,14.00
2023-05-30T03:58:54.578Z,14.10
2023-05-30T04:01:21.834Z,14.00
2023-05-30T04:03:49.182Z,14.10
2023-05-30T04:06:16.531Z,14.10
2023-05-30T04:08:43.865Z,14.10
2023-05-30T04:11:11.381Z,14.10
2023-05-30T04:13:38.688Z,14.20
2023-05-30T04:16:06.189Z,14.20
2023-05-30T04:18:33.503Z,14.20
2023-05-30T04:21:01.149Z,14.30
2023-05-30T04:23:28.718Z,14.30
2023-05-30T04:25:59.198Z,14.40
2023-05-30T04:28:29.301Z,14.40
2023-05-30T04:31:08.709Z,14.50
2023-05-30T04:33:47.082Z,14.50
2023-05-30T04:36:20.031Z,14.50
2023-05-30T04:38:50.500Z,14.60
2023-05-30T04:41:22.599Z,14.70
2023-05-30T04:43:55.829Z,14.80
2023-05-30T04:46:25.301Z,14.90
2023-05-30T04:48:54.517Z,15.00
2023-05-30T04:51:22.490Z,15.10
2023-05-30T04:53:51.608Z,15.10
2023-05-30T04:56:23.093Z,15.20
2023-05-30T04:58:53.158Z,15.20
2023-05-30T05:01:22.446Z,15.30
2023-05-30T05:03:50.549Z,15.40
2023-05-30T05:06:18.221Z,15.50
2023-05-30T05:08:45.602Z,15.60
2023-05-30T05:11:12.923Z,15.60
2023-05-30T05:13:40.195Z,15.70
2023-05-30T05:16:07.561Z,15.80
2023-05-30T05:18:35.120Z,15.90
2023-05-30T05:21:02.954Z,16.10
2023-05-30T05:23:30.651Z,16.20
2023-05-30T05:25:58.171Z,16.30
2023-05-30T05:28:25.608Z,16.20
2023-05-30T05:30:53.727Z,16.30
2023-05-30T05:33:21.319Z,16.40
2023-05-30T05:35:50.446Z,16.60
2023-05-30T05:38:18.052Z,16.70
2023-05-30T05:40:45.557Z,16.80
2023-05-30T05:43:13.128Z,16.80
2023-05-30T05:45:40.837Z,16.80
2023-05-30T05:48:08.271Z,16.50
2023-05-30T05:50:36.274Z,16.60
2023-05-30T05:53:03.863Z,16.70
2023-05-30T05:55:31.397Z,16.80
2023-05-30T05:57:58.731Z,16.70
2023-05-30T06:00:26.496Z,16.80
2023-05-30T06:02:54.104Z,16.90
2023-05-30T06:05:21.722Z,17.10
2023-05-30T06:07:49.042Z,17.20
2023-05-30T06:10:16.580Z,17.40
2023-05-30T06:12:43.866Z,17.50
2023-05-30T06:15:13.758Z,17.70
2023-05-30T06:17:41.322Z,17.80
2023-05-30T06:20:09.417Z,18.10
2023-05-30T06:22:36.995Z,18.20
2023-05-30T06:25:05.037Z,18.30
2023-05-30T06:52:11.105Z,19.90
2023-05-30T06:54:38.795Z,20.00
2023-05-30T06:57:06.952Z,20.10
2023-05-30T06:59:36.362Z,20.10
2023-05-30T07:02:05.851Z,20.30
2023-05-30T07:04:33.292Z,20.30
2023-05-30T07:07:00.884Z,20.40
2023-05-30T07:09:28.242Z,20.40
2023-05-30T07:11:55.551Z,20.50
2023-05-30T07:14:23.001Z,20.50
2023-05-30T07:16:50.291Z,20.60
2023-05-30T07:19:17.711Z,20.60
2023-05-30T07:21:45.052Z,20.60
2023-05-30T07:24:12.357Z,20.60
2023-05-30T07:26:39.638Z,20.50
2023-05-30T07:29:06.976Z,20.50
2023-05-30T07:31:34.457Z,20.50
2023-05-30T07:34:01.761Z,20.60
2023-05-30T07:36:29.077Z,20.70
2023-05-30T07:38:56.416Z,20.80
2023-05-30T07:41:23.700Z,20.80
2023-05-30T07:43:51.313Z,20.80
2023-05-30T07:46:19.487Z,20.90
2023-05-30T07:48:46.842Z,21.00
2023-05-30T07:51:14.102Z,20.90
2023-05-30T07:53:41.543Z,20.90
2023-05-30T07:56:08.954Z,20.80
2023-05-30T07:58:36.325Z,20.80
2023-05-30T08:01:03.772Z,20.90
2023-05-30T08:03:31.406Z,21.00
2023-05-30T08:05:58.863Z,20.90
2023-05-30T08:08:26.961Z,20.90
2023-05-30T08:10:54.211Z,21.00
2023-05-30T08:13:25.712Z,21.10
2023-05-30T08:15:52.986Z,21.10
2023-05-30T08:18:22.337Z,21.10
2023-05-30T08:20:55.637Z,21.20
2023-05-30T08:23:23.683Z,21.20
2023-05-30T08:25:51.964Z,21.20
2023-05-30T08:28:19.427Z,21.20
2023-05-30T08:30:50.370Z,21.30
2023-05-30T08:33:22.391Z,21.30
2023-05-30T08:35:49.682Z,21.20
2023-05-30T08:38:17.116Z,21.10
2023-05-30T08:40:46.806Z,21.10
2023-05-30T08:43:14.228Z,21.10
2023-05-30T08:45:41.598Z,21.00
2023-05-30T08:48:13.224Z,21.00
2023-05-30T08:50:42.135Z,21.10
2023-05-30T08:53:14.238Z,21.20
2023-05-30T08:55:55.479Z,21.20
2023-05-30T08:58:30.841Z,21.30
2023-05-30T09:00:59.557Z,21.20
2023-05-30T09:03:30.179Z,21.30
2023-05-30T09:05:58.191Z,21.30
2023-05-30T09:08:26.758Z,21.40
2023-05-30T09:10:59.578Z,21.30
2023-05-30T09:13:27.178Z,21.50
2023-05-30T09:15:54.627Z,21.60
2023-05-30T09:18:22.289Z,21.60
2023-05-30T09:20:50.602Z,21.60
2023-05-30T09:23:18.370Z,21.60
2023-05-30T09:25:47.913Z,21.60
2023-05-30T09:28:15.929Z,21.60
2023-05-30T09:31:00.411Z,21.70
2023-05-30T09:33:48.688Z,21.80
2023-05-30T09:36:20.515Z,21.90
2023-05-30T09:38:57.888Z,21.70
2023-05-30T09:41:27.245Z,21.70
2023-05-30T09:43:55.700Z,21.90
2023-05-30T09:46:30.946Z,22.10
2023-05-30T09:48:58.825Z,22.40
2023-05-30T09:51:27.504Z,22.60
2023-05-30T09:54:01.879Z,22.70
2023-05-30T09:56:42.672Z,23.10
2023-05-30T09:59:15.119Z,23.50
2023-05-30T10:01:44.072Z,23.80
2023-05-30T10:04:16.768Z,24.20
2023-05-30T10:06:46.436Z,24.40
2023-05-30T10:09:14.366Z,24.60
2023-05-30T10:11:44.201Z,24.90
2023-05-30T10:14:12.932Z,25.30
2023-05-30T10:16:54.554Z,25.50
2023-05-30T10:19:49.936Z,25.60
2023-05-30T10:22:18.458Z,26.00
2023-05-30T10:24:48.512Z,26.20
2023-05-30T10:27:28.796Z,26.20
2023-05-30T10:30:16.617Z,25.50
2023-05-30T10:32:49.024Z,25.80
2023-05-30T10:35:18.886Z,25.80
2023-05-30T10:37:47.528Z,25.90
2023-05-30T10:40:58.501Z,26.40
2023-05-30T10:43:38.377Z,26.60
2023-05-30T10:46:36.771Z,27.00
2023-05-30T10:49:08.100Z,27.20
2023-05-30T10:52:04.940Z,27.40
2023-05-30T10:54:34.464Z,27.40
2023-05-30T10:57:32.544Z,27.40
2023-05-30T11:00:18.556Z,26.80
2023-05-30T11:02:53.015Z,26.70
2023-05-30T11:05:34.745Z,26.90
2023-05-30T11:08:02.860Z,27.00
2023-05-30T11:10:31.229Z,27.30
2023-05-30T11:13:12.349Z,27.60
2023-05-30T11:15:47.640Z,27.80
2023-05-30T11:18:19.687Z,28.00
2023-05-30T11:20:51.912Z,27.20
2023-05-30T11:23:20.370Z,27.10
2023-05-30T11:25:47.715Z,27.20
2023-05-30T11:28:17.777Z,27.20
2023-05-30T11:30:47.738Z,26.80
2023-05-30T11:33:18.721Z,27.00
2023-05-30T11:35:50.327Z,27.40
2023-05-30T11:38:22.472Z,27.60
2023-05-30T11:40:52.065Z,27.70
2023-05-30T11:43:19.729Z,27.00
2023-05-30T11:45:51.862Z,27.30
2023-05-30T11:48:20.028Z,27.80
2023-05-30T11:50:48.312Z,28.00
2023-05-30T11:53:17.401Z,28.70
2023-05-30T11:55:48.674Z,28.70
2023-05-30T11:58:16.689Z,28.90
2023-05-30T12:00:44.893Z,29.20
2023-05-30T12:03:18.589Z,29.60
2023-05-30T12:05:48.062Z,29.50
2023-05-30T12:08:18.354Z,29.20
2023-05-30T12:10:46.494Z,29.40
2023-05-30T12:13:13.980Z,29.80
2023-05-30T12:15:41.331Z,30.00
2023-05-30T12:18:09.661Z,29.50
2023-05-30T12:20:45.355Z,30.00
2023-05-30T12:23:12.958Z,30.10
2023-05-30T12:25:41.117Z,30.20
2023-05-30T12:28:13.489Z,31.10
2023-05-30T12:30:44.320Z,31.50
2023-05-30T12:33:16.718Z,31.70
2023-05-30T12:35:44.784Z,32.20
2023-05-30T12:38:20.084Z,32.60
2023-05-30T12:40:48.608Z,32.90
2023-05-30T12:43:16.838Z,32.30
2023-05-30T12:45:46.214Z,32.00
2023-05-30T12:48:14.081Z,31.80
2023-05-30T12:50:41.593Z,32.40
2023-05-30T12:53:09.539Z,33.10
2023-05-30T12:55:36.854Z,32.30
2023-05-30T12:58:04.902Z,32.00
2023-05-30T13:00:34.131Z,31.30
2023-05-30T13:03:04.004Z,31.20
2023-05-30T13:05:31.649Z,31.50
2023-05-30T13:07:58.920Z,32.00
2023-05-30T13:10:26.260Z,32.60
2023-05-30T13:12:53.527Z,33.40
2023-05-30T13:15:20.918Z,33.60
2023-05-30T13:17:48.190Z,34.40
2023-05-30T13:20:15.833Z,34.60
2023-05-30T13:22:43.113Z,34.70
2023-05-30T13:25:10.591Z,35.10
2023-05-30T13:27:37.916Z,34.90
2023-05-30T13:30:06.989Z,34.10
2023-05-30T13:32:34.360Z,32.80
2023-05-30T13:35:01.670Z,33.20
2023-05-30T13:37:30.262Z,33.00
2023-05-30T13:39:57.557Z,33.90
2023-05-30T13:42:24.802Z,34.30
2023-05-30T13:44:52.153Z,34.90
2023-05-30T13:47:19.502Z,35.20
2023-05-30T13:49:46.790Z,35.60
2023-05-30T13:52:14.163Z,36.10
2023-05-30T13:54:41.729Z,36.30
2023-05-30T13:57:09.401Z,37.10
2023-05-30T13:59:36.802Z,36.20
2023-05-30T14:02:04.426Z,37.20
2023-05-30T14:04:32.104Z,38.00
2023-05-30T14:06:59.438Z,38.20
2023-05-30T14:09:26.717Z,38.80
2023-05-30T14:11:54.039Z,39.70
2023-05-30T14:14:21.693Z,40.60
2023-05-30T14:16:49.069Z,41.20
2023-05-30T14:19:16.511Z,40.90
2023-05-30T14:21:43.842Z,41.60
2023-05-30T14:24:11.394Z,42.20
2023-05-30T14:26:38.727Z,42.50
2023-05-30T14:29:06.371Z,42.90
2023-05-30T14:31:33.705Z,43.30
2023-05-30T14:34:01.042Z,43.10
2023-05-30T14:36:28.270Z,43.50
2023-05-30T14:38:55.533Z,43.80
2023-05-30T14:41:24.544Z,43.80
2023-05-30T14:43:51.870Z,43.80
2023-05-30T14:46:19.343Z,42.70
2023-05-30T14:48:46.776Z,42.70
2023-05-30T14:51:14.111Z,43.60
2023-05-30T14:53:42.070Z,44.60
2023-05-30T14:56:09.502Z,44.60
2023-05-30T14:58:37.409Z,44.70
2023-05-30T15:01:24.524Z,44.80
2023-05-30T15:03:52.270Z,44.40
2023-05-30T15:06:19.557Z,44.00
2023-05-30T15:08:47.281Z,43.90
2023-05-30T15:11:14.635Z,44.00
2023-05-30T15:13:42.653Z,44.60
2023-05-30T15:16:09.898Z,44.30
2023-05-30T15:18:37.217Z,43.90
2023-05-30T15:21:04.740Z,43.80
2023-05-30T15:23:32.096Z,43.50
2023-05-30T15:25:59.338Z,43.60
2023-05-30T15:28:26.659Z,44.00
2023-05-30T15:30:53.927Z,44.50
2023-05-30T15:33:21.387Z,44.80
2023-05-30T15:35:48.675Z,45.10
2023-05-30T15:38:16.151Z,45.20
2023-05-30T15:40:44.507Z,45.20
2023-05-30T15:43:12.118Z,45.10
2023-05-30T15:45:39.454Z,44.90
2023-05-30T15:48:07.247Z,44.50
2023-05-30T15:50:34.895Z,43.80
2023-05-30T15:53:02.286Z,43.80
2023-05-30T15:55:29.783Z,43.80
2023-05-30T15:57:57.078Z,44.10
2023-05-30T16:00:24.503Z,44.70
2023-05-30T16:02:52.007Z,44.80
2023-05-30T16:05:19.377Z,44.70
2023-05-30T16:07:46.682Z,45.50
2023-05-30T16:10:15.406Z,45.40
2023-05-30T16:12:43.099Z,44.50
2023-05-30T16:15:12.321Z,44.70
2023-05-30T16:17:40.010Z,44.40
2023-05-30T16:20:08.045Z,44.70
2023-05-30T16:22:35.930Z,44.40
2023-05-30T16:25:05.785Z,44.10
2023-05-30T16:27:33.130Z,43.20
2023-05-30T16:30:00.470Z,43.30
2023-05-30T16:32:27.814Z,43.10
2023-05-30T16:34:55.081Z,42.70
2023-05-30T16:37:22.420Z,42.50
2023-05-30T16:39:50.207Z,41.80
2023-05-30T16:42:17.473Z,42.50
2023-05-30T16:44:44.860Z,41.90
2023-05-30T16:47:13.414Z,42.20
2023-05-30T16:49:40.856Z,42.80
2023-05-30T16:52:08.223Z,42.20
2023-05-30T16:54:35.810Z,41.80
2023-05-30T16:57:03.175Z,42.00
2023-05-30T16:59:30.474Z,41.90
2023-05-30T17:01:59.567Z,41.80
2023-05-30T17:04:26.916Z,41.70
2023-05-30T17:06:54.198Z,41.70
2023-05-30T17:09:21.492Z,42.20
2023-05-30T17:11:48.770Z,41.40
2023-05-30T17:14:16.471Z,41.70
2023-05-30T17:16:43.767Z,42.10
2023-05-30T17:19:17.531Z,41.10
2023-05-30T17:21:48.759Z,40.20
2023-05-30T17:24:16.203Z,39.20
2023-05-30T17:26:43.490Z,39.30
2023-05-30T17:29:10.790Z,39.60
2023-05-30T17:31:38.327Z,39.60
2023-05-30T17:34:05.880Z,39.30
2023-05-30T17:36:33.168Z,39.50
2023-05-30T17:39:01.198Z,39.70
2023-05-30T17:41:28.596Z,39.30
2023-05-30T17:43:55.893Z,38.90
2023-05-30T17:46:23.276Z,38.50
2023-05-30T17:48:50.536Z,38.30
2023-05-30T17:51:17.820Z,37.90
2023-05-30T17:53:55.212Z,37.30
2023-05-30T17:56:24.622Z,37.00
2023-05-30T17:58:52.211Z,37.10
2023-05-30T18:01:19.855Z,37.10
2023-05-30T18:03:47.886Z,36.30
2023-05-30T18:06:26.484Z,36.00
2023-05-30T18:08:55.132Z,34.50
2023-05-30T18:11:22.588Z,34.10
2023-05-30T18:13:49.870Z,33.80
2023-05-30T18:16:17.331Z,33.60
2023-05-30T18:18:44.662Z,33.00
2023-05-30T18:21:12.066Z,32.60
2023-05-30T18:23:39.392Z,32.20
2023-05-30T18:26:06.721Z,32.10
2023-05-30T18:28:34.027Z,32.20
2023-05-30T18:31:02.223Z,31.60
2023-05-30T18:33:29.700Z,31.10
2023-05-30T18:36:12.285Z,30.80
2023-05-30T18:38:42.500Z,30.60
2023-05-30T18:41:14.003Z,29.60
2023-05-30T18:43:48.104Z,28.90
2023-05-30T18:46:16.600Z,28.50
2023-05-30T18:48:46.548Z,27.60
2023-05-30T18:51:15.690Z,27.00
2023-05-30T18:53:43.578Z,26.60
2023-05-30T18:56:12.437Z,26.10
2023-05-30T18:58:42.613Z,25.30
2023-05-30T19:01:10.318Z,24.40
2023-05-30T19:03:40.670Z,23.60
2023-05-30T19:06:08.575Z,23.00
2023-05-30T19:08:36.144Z,22.60
2023-05-30T19:11:03.482Z,22.10
2023-05-30T19:13:31.096Z,21.80
2023-05-30T19:15:58.473Z,21.40
2023-05-30T19:18:26.297Z,21.20
2023-05-30T19:20:55.773Z,20.90
2023-05-30T19:23:23.221Z,20.60
2023-05-30T19:25:51.077Z,20.40
2023-05-30T19:28:18.606Z,20.20
2023-05-30T19:30:46.200Z,20.00
2023-05-30T19:33:13.711Z,19.90
2023-05-30T19:35:41.077Z,19.70
2023-05-30T19:38:09.243Z,19.60
2023-05-30T19:40:36.966Z,19.50
2023-05-30T19:43:05.601Z,19.40
2023-05-30T19:45:33.160Z,19.30
2023-05-30T19:48:00.751Z,19.20
2023-05-30T19:50:28.398Z,19.10
2023-05-30T19:52:56.868Z,19.00
2023-05-30T19:55:25.561Z,18.90
2023-05-30T19:57:52.867Z,18.90
2023-05-30T20:00:20.663Z,18.80
2023-05-30T20:02:47.991Z,18.70
2023-05-30T20:05:16.380Z,18.70
2023-05-30T20:07:43.938Z,18.70
2023-05-30T20:10:11.472Z,18.60
2023-05-30T20:12:38.806Z,18.50
2023-05-30T20:15:06.567Z,18.40
2023-05-30T20:17:35.234Z,18.30
2023-05-30T20:20:04.376Z,18.30
2023-05-30T20:22:32.291Z,18.20
2023-05-30T20:24:59.789Z,18.20
2023-05-30T20:27:27.208Z,18.10
2023-05-30T20:29:54.607Z,18.10
2023-05-30T20:32:22.351Z,18.00
2023-05-30T20:34:51.865Z,18.00
2023-05-30T20:37:19.296Z,17.90
2023-05-30T20:39:47.323Z,17.90
2023-05-30T20:42:19.096Z,17.80
2023-05-30T20:44:47.006Z,17.80
2023-05-30T20:47:14.371Z,17.70
2023-05-30T20:49:41.721Z,17.70
2023-05-30T20:52:09.283Z,17.60
2023-05-30T20:54:37.214Z,17.60
2023-05-30T20:57:17.318Z,17.60
2023-05-30T20:59:45.671Z,17.50
2023-05-30T21:02:13.460Z,17.50
2023-05-30T21:04:43.054Z,17.40
2023-05-30T21:07:10.457Z,17.40
2023-05-30T21:09:37.890Z,17.30
2023-05-30T21:12:06.251Z,17.30
2023-05-30T21:14:33.700Z,17.20
2023-05-30T21:17:00.968Z,17.20
2023-05-30T21:19:28.208Z,17.10
2023-05-30T21:21:55.449Z,17.00
2023-05-30T21:24:22.740Z,17.00
2023-05-30T21:26:50.170Z,17.00
2023-05-30T21:29:17.481Z,16.90
2023-05-30T21:31:44.849Z,16.90
2023-05-30T21:34:14.459Z,16.80
2023-05-30T21:36:41.919Z,16.80
2023-05-30T21:39:09.278Z,16.80
2023-05-30T21:41:36.689Z,16.70
2023-05-30T21:44:06.439Z,16.60
2023-05-30T21:46:34.118Z,16.60
2023-05-30T21:49:01.744Z,16.60
2023-05-30T21:51:29.112Z,16.50
2023-05-30T21:54:04.480Z,16.40
2023-05-30T21:56:31.736Z,16.40
2023-05-30T21:59:00.282Z,16.40
2023-05-30T22:01:27.709Z,16.30
2023-05-30T22:03:55.138Z,16.20
2023-05-30T22:06:22.650Z,16.20
2023-05-30T22:08:52.536Z,16.10
2023-05-30T22:11:19.953Z,16.20
2023-05-30T22:13:47.235Z,16.20
2023-05-30T22:16:14.669Z,16.20
2023-05-30T22:18:42.057Z,16.20
2023-05-30T22:21:09.518Z,16.20
2023-05-30T22:23:36.781Z,16.20
2023-05-30T22:26:04.252Z,16.20
2023-05-30T22:28:31.730Z,16.20
2023-05-30T22:30:59.168Z,16.20
2023-05-30T22:33:26.496Z,16.10
2023-05-30T22:35:53.800Z,16.10
2023-05-30T22:38:21.131Z,16.00
2023-05-30T22:40:48.472Z,15.90
2023-05-30T22:43:15.977Z,15.90
2023-05-30T22:45:43.254Z,15.90
2023-05-30T22:48:10.890Z,15.80
2023-05-30T22:50:38.632Z,15.80
2023-05-30T22:53:06.099Z,15.70
2023-05-30T22:55:33.475Z,15.60
2023-05-30T22:58:00.900Z,15.60
2023-05-30T23:00:28.784Z,15.50
2023-05-30T23:02:56.203Z,15.50
2023-05-30T23:05:23.617Z,15.40
2023-05-30T23:07:51.209Z,15.30
2023-05-30T23:10:21.239Z,15.30
2023-05-30T23:12:49.207Z,15.30
2023-05-30T23:15:17.031Z,15.40
2023-05-30T23:17:44.496Z,15.30
2023-05-30T23:20:12.380Z,15.30
2023-05-30T23:22:40.156Z,15.30
2023-05-30T23:25:07.683Z,15.20
2023-05-30T23:27:34.965Z,15.20
2023-05-30T23:30:04.242Z,15.10
2023-05-30T23:32:31.614Z,15.10
2023-05-30T23:34:59.398Z,15.00
2023-05-30T23:37:26.820Z,15.00
2023-05-30T23:39:54.122Z,15.00
2023-05-30T23:42:21.410Z,14.90
2023-05-30T23:44:48.715Z,14.90
2023-05-30T23:47:16.034Z,14.90
2023-05-30T23:49:43.330Z,14.90
2023-05-30T23:52:10.948Z,14.90
2023-05-30T23:54:38.397Z,14.90
2023-05-30T23:57:06.665Z,14.80
2023-05-30T23:59:33.957Z,14.80
